Time;durP1;ratioP1;P1;durP2;ratioP2;P2;SDS_P1;SDS_P2;PMS_P1;PMS_P2;Temp;Humidity;BMP_temperature;BMP_pressure;BME280_temperature;BME280_humidity;BME280_pressure;Samples;Min_cycle;Max_cycle;Signal;HPM_P1;HPM_P2
2022/03/27 00:00:16;;;;;;;;;;;7.60;75.40;;;;;;4096995;29;19977;-53
2022/03/27 00:02:44;;;;;;;;;;;7.60;75.40;;;;;;4098155;29;20037;-53
2022/03/27 00:04:47;;;;;;;;;;;7.50;75.70;;;;;;4083250;29;20026;-52
2022/03/27 00:09:17;;;;;;;;;;;7.50;77.10;;;;;;4100517;28;19933;-52
2022/03/27 00:11:26;;;;;;;;;;;7.50;76.60;;;;;;4096188;29;19965;-51
2022/03/27 00:13:29;;;;;;;;;;;7.50;76.60;;;;;;4096819;29;19937;-53
2022/03/27 00:15:31;;;;;;;;;;;7.40;76.60;;;;;;4096566;29;20290;-53
2022/03/27 00:17:34;;;;;;;;;;;7.40;76.20;;;;;;4096996;28;19930;-53
2022/03/27 00:19:36;;;;;;;;;;;7.40;77.00;;;;;;4096229;29;20401;-53
2022/03/27 00:21:40;;;;;;;;;;;7.30;77.50;;;;;;4096652;29;19927;-53
2022/03/27 00:23:43;;;;;;;;;;;7.30;78.10;;;;;;4097119;28;19982;-52
2022/03/27 00:25:48;;;;;;;;;;;7.20;78.60;;;;;;4096824;29;19934;-52
2022/03/27 00:27:51;;;;;;;;;;;7.20;78.30;;;;;;4097734;28;19930;-52
2022/03/27 00:29:53;;;;;;;;;;;7.20;78.20;;;;;;4096107;28;20053;-51
2022/03/27 00:31:56;;;;;;;;;;;7.20;78.00;;;;;;4096403;29;19927;-52
2022/03/27 00:33:58;;;;;;;;;;;7.20;80.20;;;;;;4096695;28;19993;-53
2022/03/27 00:36:01;;;;;;;;;;;7.20;78.20;;;;;;4102169;28;20536;-53
2022/03/27 00:38:03;;;;;;;;;;;7.20;77.60;;;;;;4096468;29;20453;-52
2022/03/27 00:40:05;;;;;;;;;;;7.20;77.90;;;;;;4095772;29;20453;-53
2022/03/27 00:42:08;;;;;;;;;;;7.20;79.90;;;;;;4096544;29;20428;-52
2022/03/27 00:44:10;;;;;;;;;;;7.30;77.80;;;;;;4102838;28;20429;-49
2022/03/27 00:46:12;;;;;;;;;;;7.20;78.30;;;;;;4097669;29;19934;-52
2022/03/27 00:48:16;;;;;;;;;;;7.20;78.00;;;;;;4097875;29;19926;-52
2022/03/27 00:50:18;;;;;;;;;;;7.10;79.10;;;;;;4102775;28;20377;-52
2022/03/27 00:52:21;;;;;;;;;;;7.20;78.80;;;;;;4100127;28;20395;-52
2022/03/27 00:54:23;;;;;;;;;;;7.10;77.90;;;;;;4096186;29;19926;-53
2022/03/27 00:56:26;;;;;;;;;;;7.10;79.60;;;;;;4097103;29;19953;-53
2022/03/27 00:58:28;;;;;;;;;;;6.80;81.80;;;;;;4094862;28;19935;-50
2022/03/27 01:00:46;;;;;;;;;;;6.80;83.00;;;;;;4095678;29;19931;-51
2022/03/27 01:02:50;;;;;;;;;;;6.80;83.00;;;;;;4095813;29;20406;-51
2022/03/27 01:04:57;;;;;;;;;;;6.80;82.80;;;;;;4096154;29;19926;-52
2022/03/27 01:07:00;;;;;;;;;;;6.70;81.90;;;;;;4096643;29;19937;-51
2022/03/27 01:11:25;;;;;;;;;;;6.80;80.20;;;;;;4084465;29;19926;-53
2022/03/27 01:13:28;;;;;;;;;;;6.90;80.40;;;;;;4096107;29;19934;-50
2022/03/27 01:15:33;;;;;;;;;;;6.70;82.20;;;;;;4095779;29;19972;-52
2022/03/27 01:17:35;;;;;;;;;;;6.50;83.50;;;;;;4098982;28;20353;-53
2022/03/27 01:19:41;;;;;;;;;;;6.60;84.00;;;;;;4097232;28;19926;-53
2022/03/27 01:21:44;;;;;;;;;;;6.70;82.70;;;;;;4096323;29;19926;-52
2022/03/27 01:23:46;;;;;;;;;;;6.80;81.20;;;;;;4095952;29;19933;-49
2022/03/27 01:25:48;;;;;;;;;;;6.80;81.10;;;;;;4095783;28;19931;-50
2022/03/27 01:27:49;;;;;;;;;;;6.80;81.00;;;;;;4095451;29;20021;-51
2022/03/27 01:29:54;;;;;;;;;;;6.90;81.40;;;;;;4097367;29;20051;-52
2022/03/27 01:31:57;;;;;;;;;;;6.90;80.00;;;;;;4099851;28;20469;-52
2022/03/27 01:33:59;;;;;;;;;;;6.80;81.40;;;;;;4095463;29;19998;-52
2022/03/27 01:36:01;;;;;;;;;;;6.80;82.10;;;;;;4079637;29;20050;-52
2022/03/27 01:38:03;;;;;;;;;;;6.70;83.50;;;;;;4096241;29;19926;-51
2022/03/27 01:40:06;;;;;;;;;;;6.60;84.50;;;;;;4095564;29;20483;-53
2022/03/27 01:42:08;;;;;;;;;;;6.50;86.20;;;;;;4084027;29;20330;-51
2022/03/27 01:44:11;;;;;;;;;;;6.40;87.10;;;;;;4096880;28;20424;-52
2022/03/27 01:46:13;;;;;;;;;;;6.30;87.90;;;;;;4095311;29;19970;-52
2022/03/27 01:48:15;;;;;;;;;;;6.30;87.40;;;;;;4095283;29;20011;-51
2022/03/27 01:50:17;;;;;;;;;;;6.30;85.70;;;;;;4097532;28;19989;-52
2022/03/27 01:52:19;;;;;;;;;;;6.30;87.00;;;;;;4095276;29;20034;-53
2022/03/27 01:54:22;;;;;;;;;;;6.30;89.30;;;;;;4095314;29;19931;-53
2022/03/27 01:56:25;;;;;;;;;;;6.20;90.30;;;;;;4095217;29;20001;-52
2022/03/27 01:58:27;;;;;;;;;;;6.00;90.30;;;;;;4095231;29;20474;-52
2022/03/27 02:00:28;;;;;;;;;;;6.10;88.60;;;;;;4095119;29;20305;-52
2022/03/27 02:02:30;;;;;;;;;;;6.10;87.50;;;;;;4095200;28;19957;-53
2022/03/27 02:04:33;;;;;;;;;;;6.10;89.80;;;;;;4095816;29;19930;-52
2022/03/27 02:06:37;;;;;;;;;;;5.90;89.50;;;;;;4096286;29;19931;-52
2022/03/27 02:08:39;;;;;;;;;;;5.90;90.50;;;;;;4108191;28;19926;-52
2022/03/27 02:10:41;;;;;;;;;;;5.90;88.60;;;;;;4095624;28;20030;-53
2022/03/27 02:12:43;;;;;;;;;;;5.90;89.40;;;;;;4094935;29;19985;-52
2022/03/27 02:14:45;;;;;;;;;;;5.90;90.60;;;;;;4095276;29;19927;-52
2022/03/27 02:16:47;;;;;;;;;;;5.80;89.80;;;;;;4094678;29;19965;-50
2022/03/27 02:18:49;;;;;;;;;;;5.90;90.80;;;;;;4103565;28;19933;-52
2022/03/27 02:20:52;;;;;;;;;;;5.90;89.60;;;;;;4094862;29;19985;-51
2022/03/27 02:22:54;;;;;;;;;;;5.90;89.00;;;;;;4096044;29;19926;-52
2022/03/27 02:24:56;;;;;;;;;;;5.80;89.90;;;;;;4096099;29;19997;-52
2022/03/27 02:26:58;;;;;;;;;;;5.70;89.70;;;;;;4099017;28;19981;-51
2022/03/27 02:29:00;;;;;;;;;;;5.80;89.80;;;;;;4098721;28;19930;-53
2022/03/27 02:31:01;;;;;;;;;;;5.90;88.90;;;;;;4094563;29;20413;-51
2022/03/27 02:33:03;;;;;;;;;;;5.90;89.40;;;;;;4095040;29;20444;-53
2022/03/27 02:35:05;;;;;;;;;;;5.90;89.00;;;;;;4094600;29;19953;-50
2022/03/27 02:37:08;;;;;;;;;;;5.80;89.60;;;;;;4093535;29;20322;-53
2022/03/27 02:39:09;;;;;;;;;;;5.80;90.70;;;;;;4094742;29;20589;-53
2022/03/27 02:41:15;;;;;;;;;;;5.80;91.40;;;;;;4095853;29;19965;-52
2022/03/27 02:43:17;;;;;;;;;;;5.70;90.60;;;;;;4096574;28;19965;-53
2022/03/27 02:45:19;;;;;;;;;;;5.70;90.40;;;;;;4096468;28;19930;-52
2022/03/27 02:47:21;;;;;;;;;;;5.80;90.80;;;;;;4094630;29;19976;-52
2022/03/27 02:49:23;;;;;;;;;;;5.70;90.50;;;;;;4094894;29;19973;-53
2022/03/27 02:51:25;;;;;;;;;;;5.70;90.40;;;;;;4100769;28;20306;-53
2022/03/27 02:53:27;;;;;;;;;;;5.80;90.50;;;;;;4094561;28;19927;-53
2022/03/27 02:55:28;;;;;;;;;;;5.70;90.40;;;;;;4083969;29;19934;-51
2022/03/27 02:57:30;;;;;;;;;;;5.70;90.60;;;;;;4094626;29;19987;-51
2022/03/27 02:59:32;;;;;;;;;;;5.70;91.50;;;;;;4096020;29;20571;-52
2022/03/27 03:01:35;;;;;;;;;;;5.60;92.00;;;;;;4094395;29;19949;-52
2022/03/27 03:03:37;;;;;;;;;;;5.50;92.40;;;;;;4094780;29;20381;-52
2022/03/27 03:05:39;;;;;;;;;;;5.60;93.10;;;;;;4094413;29;20341;-51
2022/03/27 03:07:41;;;;;;;;;;;5.50;92.90;;;;;;4099427;28;19967;-52
2022/03/27 03:09:43;;;;;;;;;;;5.40;93.50;;;;;;4102907;28;19984;-50
2022/03/27 03:11:45;;;;;;;;;;;5.40;93.60;;;;;;4094619;29;20305;-52
2022/03/27 03:13:47;;;;;;;;;;;5.40;93.40;;;;;;4094323;29;19965;-53
2022/03/27 03:15:50;;;;;;;;;;;5.30;94.00;;;;;;4095052;29;20028;-48
2022/03/27 03:17:51;;;;;;;;;;;5.20;94.50;;;;;;4101571;28;19985;-52
2022/03/27 03:19:54;;;;;;;;;;;5.00;95.20;;;;;;4095253;28;20017;-51
2022/03/27 03:21:56;;;;;;;;;;;4.90;95.30;;;;;;4094356;29;19966;-51
2022/03/27 03:23:57;;;;;;;;;;;4.70;95.90;;;;;;4096243;28;19927;-52
2022/03/27 03:26:00;;;;;;;;;;;4.70;95.60;;;;;;4094148;29;19974;-52
2022/03/27 03:28:08;;;;;;;;;;;4.70;95.80;;;;;;4094289;29;20283;-52
2022/03/27 03:30:10;;;;;;;;;;;4.60;96.20;;;;;;4094051;29;19937;-52
2022/03/27 03:32:12;;;;;;;;;;;4.60;96.20;;;;;;4094546;29;20021;-54
2022/03/27 03:34:14;;;;;;;;;;;4.70;97.10;;;;;;4094606;29;20069;-50
2022/03/27 03:36:16;;;;;;;;;;;4.80;96.40;;;;;;4095259;29;19934;-52
2022/03/27 03:38:18;;;;;;;;;;;4.80;96.30;;;;;;4094373;29;19962;-51
2022/03/27 03:40:20;;;;;;;;;;;4.80;96.30;;;;;;4093817;29;19930;-52
2022/03/27 03:42:22;;;;;;;;;;;4.80;96.90;;;;;;4094274;29;19946;-53
2022/03/27 03:44:26;;;;;;;;;;;4.80;96.90;;;;;;4095902;28;20432;-52
2022/03/27 03:46:28;;;;;;;;;;;4.80;98.60;;;;;;4094261;29;20512;-51
2022/03/27 03:48:30;;;;;;;;;;;4.90;97.30;;;;;;4094138;29;20016;-52
2022/03/27 03:50:38;;;;;;;;;;;4.80;97.10;;;;;;4100238;28;20493;-52
2022/03/27 03:52:40;;;;;;;;;;;4.70;97.40;;;;;;4094493;29;19973;-52
2022/03/27 03:54:42;;;;;;;;;;;4.70;97.40;;;;;;4084675;29;20420;-52
2022/03/27 03:56:44;;;;;;;;;;;4.60;97.30;;;;;;4094076;29;20012;-50
2022/03/27 03:58:46;;;;;;;;;;;4.60;97.30;;;;;;4095568;29;19997;-52
2022/03/27 04:00:50;;;;;;;;;;;4.60;97.80;;;;;;4094057;29;19985;-52
2022/03/27 04:02:52;;;;;;;;;;;4.60;97.70;;;;;;4093829;29;19997;-52
2022/03/27 04:04:54;;;;;;;;;;;4.60;98.70;;;;;;4095220;28;20454;-52
2022/03/27 04:06:56;;;;;;;;;;;4.60;96.80;;;;;;4096991;28;19926;-53
2022/03/27 04:08:58;;;;;;;;;;;4.70;98.00;;;;;;4109229;28;20030;-52
2022/03/27 04:11:00;;;;;;;;;;;4.70;97.00;;;;;;4081007;29;20017;-53
2022/03/27 04:13:02;;;;;;;;;;;4.90;96.00;;;;;;4098013;29;20461;-53
2022/03/27 04:15:04;;;;;;;;;;;4.90;96.30;;;;;;4096799;29;19937;-52
2022/03/27 04:17:06;;;;;;;;;;;4.90;95.90;;;;;;4096696;29;20417;-52
2022/03/27 04:19:08;;;;;;;;;;;4.90;96.00;;;;;;4103258;28;20343;-50
2022/03/27 04:21:10;;;;;;;;;;;4.90;95.60;;;;;;4099970;28;19926;-52
2022/03/27 04:23:13;;;;;;;;;;;4.90;95.50;;;;;;4096519;29;19934;-52
2022/03/27 04:25:15;;;;;;;;;;;4.90;96.50;;;;;;4096475;29;20390;-52
2022/03/27 04:27:17;;;;;;;;;;;4.80;96.10;;;;;;4096696;29;19949;-53
2022/03/27 04:29:19;;;;;;;;;;;4.80;95.90;;;;;;4097838;29;19976;-51
2022/03/27 04:31:21;;;;;;;;;;;4.90;95.80;;;;;;4097966;29;19981;-52
2022/03/27 04:33:23;;;;;;;;;;;4.80;95.60;;;;;;4096363;28;20137;-52
2022/03/27 04:35:25;;;;;;;;;;;4.80;95.40;;;;;;4096593;29;20228;-52
2022/03/27 04:37:27;;;;;;;;;;;4.80;95.30;;;;;;4096649;29;19927;-53
2022/03/27 04:39:28;;;;;;;;;;;4.80;95.10;;;;;;4096174;29;19931;-51
2022/03/27 04:41:30;;;;;;;;;;;5.00;95.90;;;;;;4097103;28;20029;-52
2022/03/27 04:43:32;;;;;;;;;;;4.80;97.80;;;;;;4108291;28;20445;-53
2022/03/27 04:45:34;;;;;;;;;;;4.40;99.20;;;;;;4096462;29;19927;-52
2022/03/27 04:47:36;;;;;;;;;;;4.30;99.90;;;;;;4081951;29;20422;-52
2022/03/27 04:49:38;;;;;;;;;;;4.10;99.90;;;;;;4097051;28;19961;-52
2022/03/27 04:51:40;;;;;;;;;;;4.20;99.90;;;;;;4099174;28;19993;-52
2022/03/27 04:53:42;;;;;;;;;;;4.10;99.90;;;;;;4096270;29;19961;-52
2022/03/27 04:55:44;;;;;;;;;;;4.00;99.90;;;;;;4097219;29;20005;-51
2022/03/27 04:57:46;;;;;;;;;;;4.00;99.90;;;;;;4096869;29;19989;-50
2022/03/27 04:59:48;;;;;;;;;;;3.80;99.90;;;;;;4095852;29;19970;-51
2022/03/27 05:01:50;;;;;;;;;;;3.70;99.90;;;;;;4096337;29;19966;-51
2022/03/27 05:03:52;;;;;;;;;;;3.70;99.90;;;;;;4097102;29;20390;-51
2022/03/27 05:05:54;;;;;;;;;;;3.80;99.90;;;;;;4096887;29;19927;-50
2022/03/27 05:07:56;;;;;;;;;;;3.80;99.90;;;;;;4098355;28;20457;-51
2022/03/27 05:09:58;;;;;;;;;;;3.70;99.90;;;;;;4095925;29;19998;-52
2022/03/27 05:12:00;;;;;;;;;;;3.70;99.90;;;;;;4095844;29;19930;-52
2022/03/27 05:14:02;;;;;;;;;;;3.90;99.90;;;;;;4095772;29;20412;-52
2022/03/27 05:16:04;;;;;;;;;;;3.80;99.90;;;;;;4097121;28;19977;-52
2022/03/27 05:18:06;;;;;;;;;;;3.80;99.90;;;;;;4098921;28;19931;-51
2022/03/27 05:20:08;;;;;;;;;;;3.70;99.90;;;;;;4095687;29;20306;-52
2022/03/27 05:22:10;;;;;;;;;;;3.70;99.90;;;;;;4097349;29;19930;-51
2022/03/27 05:24:12;;;;;;;;;;;3.80;99.90;;;;;;4096136;29;20000;-52
2022/03/27 05:26:16;;;;;;;;;;;3.70;99.90;;;;;;4096078;29;19972;-53
2022/03/27 05:28:19;;;;;;;;;;;3.70;99.90;;;;;;4094630;29;19930;-53
2022/03/27 05:30:23;;;;;;;;;;;3.60;99.90;;;;;;4095668;29;19927;-52
2022/03/27 05:32:24;;;;;;;;;;;3.80;99.90;;;;;;4095715;29;20026;-53
2022/03/27 05:34:26;;;;;;;;;;;3.80;99.90;;;;;;4096940;28;19950;-50
2022/03/27 05:36:28;;;;;;;;;;;4.00;99.90;;;;;;4095502;29;19938;-52
2022/03/27 05:38:30;;;;;;;;;;;4.20;98.60;;;;;;4096506;29;20393;-50
2022/03/27 05:40:32;;;;;;;;;;;4.40;98.10;;;;;;4096205;29;19937;-52
2022/03/27 05:42:34;;;;;;;;;;;4.60;97.50;;;;;;4095132;29;20382;-52
2022/03/27 05:44:36;;;;;;;;;;;4.60;97.90;;;;;;4097759;28;19973;-52
2022/03/27 05:46:38;;;;;;;;;;;4.70;97.70;;;;;;4095469;29;20449;-52
2022/03/27 05:48:40;;;;;;;;;;;4.60;98.00;;;;;;4095246;29;19934;-52
2022/03/27 05:50:42;;;;;;;;;;;4.60;98.40;;;;;;4099809;28;19970;-53
2022/03/27 05:52:44;;;;;;;;;;;4.50;98.60;;;;;;4095305;29;19931;-53
2022/03/27 05:54:46;;;;;;;;;;;4.40;99.90;;;;;;4095243;29;19989;-52
2022/03/27 05:56:47;;;;;;;;;;;4.30;99.90;;;;;;4096715;29;20016;-50
2022/03/27 05:58:49;;;;;;;;;;;4.10;99.90;;;;;;4094989;29;19953;-53
2022/03/27 06:00:51;;;;;;;;;;;3.80;99.90;;;;;;4095250;29;20306;-52
2022/03/27 06:02:53;;;;;;;;;;;3.70;99.90;;;;;;4095389;29;19930;-51
2022/03/27 06:04:55;;;;;;;;;;;3.60;99.90;;;;;;4095023;28;19934;-52
2022/03/27 06:06:57;;;;;;;;;;;3.70;99.90;;;;;;4095477;29;19981;-52
2022/03/27 06:08:59;;;;;;;;;;;3.70;99.90;;;;;;4102232;28;20437;-51
2022/03/27 06:11:01;;;;;;;;;;;3.80;99.90;;;;;;4094964;28;20433;-52
2022/03/27 06:13:03;;;;;;;;;;;4.00;99.90;;;;;;4109335;28;19934;-53
2022/03/27 06:15:06;;;;;;;;;;;4.10;99.90;;;;;;4095956;29;19947;-52
2022/03/27 06:17:08;;;;;;;;;;;4.20;99.90;;;;;;4094720;28;19953;-52
2022/03/27 06:19:10;;;;;;;;;;;4.40;99.90;;;;;;4093054;29;19930;-53
2022/03/27 06:21:12;;;;;;;;;;;4.40;99.90;;;;;;4094712;28;19934;-53
2022/03/27 06:23:17;;;;;;;;;;;4.60;99.90;;;;;;4093021;28;19926;-52
2022/03/27 06:25:20;;;;;;;;;;;4.70;99.90;;;;;;4093677;29;20302;-52
2022/03/27 06:27:22;;;;;;;;;;;4.80;99.90;;;;;;4094278;28;19926;-52
2022/03/27 06:29:24;;;;;;;;;;;5.00;99.90;;;;;;4096005;29;19927;-53
2022/03/27 06:31:25;;;;;;;;;;;5.00;99.90;;;;;;4095995;29;19954;-52
2022/03/27 06:33:27;;;;;;;;;;;5.20;99.90;;;;;;4095927;28;19969;-53
2022/03/27 06:35:30;;;;;;;;;;;5.30;99.90;;;;;;4098352;28;19926;-52
2022/03/27 06:37:32;;;;;;;;;;;5.30;99.90;;;;;;4098516;28;19930;-56
2022/03/27 06:39:34;;;;;;;;;;;5.40;99.90;;;;;;4101093;28;20477;-52
2022/03/27 06:41:36;;;;;;;;;;;5.50;99.90;;;;;;4093281;29;20305;-53
2022/03/27 06:43:38;;;;;;;;;;;5.70;99.90;;;;;;4093886;28;19996;-52
2022/03/27 06:45:40;;;;;;;;;;;5.80;99.90;;;;;;4094747;29;19937;-52
2022/03/27 06:47:44;;;;;;;;;;;5.80;99.90;;;;;;4094588;29;19936;-52
2022/03/27 06:49:47;;;;;;;;;;;5.90;99.90;;;;;;4096577;28;19940;-52
2022/03/27 06:51:49;;;;;;;;;;;6.00;99.90;;;;;;4095200;29;19985;-49
2022/03/27 06:53:51;;;;;;;;;;;6.10;99.90;;;;;;4094798;29;19927;-51
2022/03/27 06:55:52;;;;;;;;;;;6.20;99.90;;;;;;4094469;29;20410;-51
2022/03/27 06:57:54;;;;;;;;;;;6.40;99.90;;;;;;4088591;29;19927;-53
2022/03/27 07:04:37;;;;;;;;;;;6.50;96.30;;;;;;4094445;29;19931;-52
2022/03/27 07:06:42;;;;;;;;;;;6.60;99.10;;;;;;4094638;29;20417;-52
2022/03/27 07:08:44;;;;;;;;;;;6.60;99.90;;;;;;4098788;28;20306;-51
2022/03/27 07:10:47;;;;;;;;;;;6.60;99.90;;;;;;4094239;29;19934;-52
2022/03/27 07:12:49;;;;;;;;;;;6.60;99.90;;;;;;4095097;29;20498;-52
2022/03/27 07:14:51;;;;;;;;;;;6.70;99.70;;;;;;4095452;29;20290;-52
2022/03/27 07:17:17;;;;;;;;;;;6.70;99.00;;;;;;4096271;28;19941;-51
2022/03/27 07:19:19;;;;;;;;;;;6.80;98.90;;;;;;4094376;28;20026;-51
2022/03/27 07:21:21;;;;;;;;;;;7.00;95.50;;;;;;4094578;29;19973;-52
2022/03/27 07:23:24;;;;;;;;;;;7.10;97.00;;;;;;4094068;29;20320;-52
2022/03/27 07:25:27;;;;;;;;;;;7.20;95.20;;;;;;4094361;29;20025;-52
2022/03/27 07:27:29;;;;;;;;;;;7.30;95.20;;;;;;4094260;29;20302;-52
2022/03/27 07:29:31;;;;;;;;;;;7.40;95.00;;;;;;4094320;29;19935;-52
2022/03/27 07:31:33;;;;;;;;;;;7.60;95.00;;;;;;4094477;29;19931;-52
2022/03/27 07:33:35;;;;;;;;;;;7.60;95.10;;;;;;4094930;29;19930;-52
2022/03/27 07:35:37;;;;;;;;;;;7.90;92.80;;;;;;4095628;29;19930;-52
2022/03/27 07:37:39;;;;;;;;;;;8.10;93.40;;;;;;4093965;29;19961;-52
2022/03/27 07:39:41;;;;;;;;;;;8.40;94.00;;;;;;4096732;29;20545;-52
2022/03/27 07:41:43;;;;;;;;;;;8.70;93.20;;;;;;4097298;29;19954;-52
2022/03/27 07:43:45;;;;;;;;;;;8.80;91.90;;;;;;4101913;28;20473;-52
2022/03/27 07:45:47;;;;;;;;;;;8.90;92.70;;;;;;4097391;29;19976;-53
2022/03/27 07:47:49;;;;;;;;;;;9.00;93.10;;;;;;4096958;29;19931;-53
2022/03/27 07:49:51;;;;;;;;;;;9.10;93.40;;;;;;4098449;28;19926;-53
2022/03/27 07:51:54;;;;;;;;;;;9.20;92.50;;;;;;4098493;28;19935;-52
2022/03/27 07:53:56;;;;;;;;;;;9.40;93.00;;;;;;4097372;29;20405;-53
2022/03/27 07:55:57;;;;;;;;;;;9.50;93.20;;;;;;4096266;29;20017;-52
2022/03/27 07:58:00;;;;;;;;;;;9.70;93.50;;;;;;4098226;29;20263;-52
2022/03/27 08:00:03;;;;;;;;;;;9.80;92.30;;;;;;4096973;29;19997;-54
2022/03/27 08:02:05;;;;;;;;;;;9.90;93.00;;;;;;4097011;29;19930;-49
2022/03/27 08:04:07;;;;;;;;;;;9.90;93.00;;;;;;4098546;28;20453;-52
2022/03/27 08:06:09;;;;;;;;;;;10.00;93.40;;;;;;4109058;28;19926;-53
2022/03/27 08:08:11;;;;;;;;;;;10.10;92.90;;;;;;4103890;28;19930;-51
2022/03/27 08:10:15;;;;;;;;;;;10.20;93.50;;;;;;4097933;29;20382;-52
2022/03/27 08:12:20;;;;;;;;;;;10.20;93.40;;;;;;4097905;29;19981;-52
2022/03/27 08:14:27;;;;;;;;;;;10.40;92.80;;;;;;4096745;29;19966;-52
2022/03/27 08:16:29;;;;;;;;;;;10.60;92.90;;;;;;4096374;29;19965;-51
2022/03/27 08:18:32;;;;;;;;;;;10.70;93.10;;;;;;4096351;28;20410;-52
2022/03/27 08:20:34;;;;;;;;;;;11.00;91.80;;;;;;4096359;29;19926;-53
2022/03/27 08:22:36;;;;;;;;;;;11.10;92.40;;;;;;4096600;29;19931;-52
2022/03/27 08:24:38;;;;;;;;;;;11.20;92.10;;;;;;4096431;29;20025;-52
2022/03/27 08:27:00;;;;;;;;;;;11.40;92.40;;;;;;4096721;29;19977;-53
2022/03/27 08:29:03;;;;;;;;;;;11.70;90.90;;;;;;4096659;29;19965;-53
2022/03/27 08:31:05;;;;;;;;;;;12.10;90.30;;;;;;4097383;28;19926;-53
2022/03/27 08:33:07;;;;;;;;;;;12.20;89.50;;;;;;4097586;29;19930;-53
2022/03/27 08:35:10;;;;;;;;;;;12.30;90.80;;;;;;4096761;29;20453;-51
2022/03/27 08:37:13;;;;;;;;;;;12.40;90.40;;;;;;4096586;29;20353;-50
2022/03/27 08:39:15;;;;;;;;;;;12.90;80.70;;;;;;4097005;29;20564;-53
2022/03/27 08:41:18;;;;;;;;;;;13.90;75.30;;;;;;4096401;29;19941;-53
2022/03/27 08:43:19;;;;;;;;;;;14.70;74.10;;;;;;4097885;28;19937;-53
2022/03/27 08:45:22;;;;;;;;;;;14.90;77.40;;;;;;4104382;28;19954;-52
2022/03/27 08:47:26;;;;;;;;;;;15.90;64.20;;;;;;4095955;29;20037;-53
2022/03/27 08:49:33;;;;;;;;;;;17.10;56.70;;;;;;4097164;28;20375;-54
2022/03/27 08:51:47;;;;;;;;;;;17.40;58.50;;;;;;4088149;29;19958;-52
2022/03/27 08:54:01;;;;;;;;;;;17.60;52.80;;;;;;4096889;29;20005;-53
2022/03/27 08:56:06;;;;;;;;;;;17.60;55.70;;;;;;4097088;29;19934;-53
2022/03/27 08:58:09;;;;;;;;;;;18.00;52.90;;;;;;4096179;29;19940;-54
2022/03/27 09:00:11;;;;;;;;;;;18.10;54.20;;;;;;4096255;28;19927;-53
2022/03/27 09:02:13;;;;;;;;;;;18.30;50.50;;;;;;4096683;28;19930;-53
2022/03/27 09:04:16;;;;;;;;;;;18.40;50.10;;;;;;4095948;29;19985;-54
2022/03/27 09:06:21;;;;;;;;;;;18.50;49.80;;;;;;4096276;29;19931;-52
2022/03/27 09:08:24;;;;;;;;;;;18.60;49.20;;;;;;4101284;28;20016;-50
2022/03/27 09:10:27;;;;;;;;;;;18.80;50.20;;;;;;4095714;29;20029;-53
2022/03/27 09:12:29;;;;;;;;;;;18.90;46.80;;;;;;4096083;29;20029;-53
2022/03/27 09:14:32;;;;;;;;;;;19.00;48.50;;;;;;4097117;29;19930;-54
2022/03/27 09:17:01;;;;;;;;;;;19.00;50.20;;;;;;4095783;29;20052;-52
2022/03/27 09:19:03;;;;;;;;;;;19.10;47.10;;;;;;4110277;28;20401;-53
2022/03/27 09:21:05;;;;;;;;;;;19.10;45.60;;;;;;4097025;28;19931;-53
2022/03/27 09:23:14;;;;;;;;;;;19.10;45.90;;;;;;4095994;28;20252;-53
2022/03/27 09:25:16;;;;;;;;;;;19.10;47.30;;;;;;4095733;29;20461;-52
2022/03/27 09:27:27;;;;;;;;;;;19.10;46.70;;;;;;4095680;29;20021;-52
2022/03/27 09:29:29;;;;;;;;;;;19.00;45.60;;;;;;4095854;29;19926;-53
2022/03/27 09:31:31;;;;;;;;;;;19.00;47.70;;;;;;4095864;29;19926;-53
2022/03/27 09:33:46;;;;;;;;;;;19.00;44.60;;;;;;4095934;28;20418;-50
2022/03/27 09:36:02;;;;;;;;;;;18.80;44.80;;;;;;4095198;29;19930;-51
2022/03/27 09:38:15;;;;;;;;;;;18.60;45.00;;;;;;4093173;28;19934;-51
2022/03/27 09:40:17;;;;;;;;;;;18.70;45.90;;;;;;4094256;29;20485;-51
2022/03/27 09:42:19;;;;;;;;;;;18.80;46.40;;;;;;4095813;29;19930;-50
2022/03/27 09:44:22;;;;;;;;;;;18.90;44.60;;;;;;4094859;28;20375;-51
2022/03/27 09:46:26;;;;;;;;;;;19.00;46.20;;;;;;4094622;29;20679;-51
2022/03/27 09:48:28;;;;;;;;;;;18.90;44.10;;;;;;4096264;29;20025;-51
2022/03/27 09:50:32;;;;;;;;;;;18.90;45.30;;;;;;4096026;28;20009;-51
2022/03/27 09:52:34;;;;;;;;;;;18.80;44.90;;;;;;4091266;29;19930;-49
2022/03/27 09:54:45;;;;;;;;;;;18.80;45.40;;;;;;4095386;29;20437;-51
2022/03/27 09:56:47;;;;;;;;;;;18.90;45.50;;;;;;4091188;28;20041;-50
2022/03/27 09:58:49;;;;;;;;;;;18.90;45.90;;;;;;4094709;29;20164;-51
2022/03/27 10:01:06;;;;;;;;;;;18.90;45.40;;;;;;4093891;29;19973;-51
2022/03/27 10:03:11;;;;;;;;;;;18.70;43.40;;;;;;4094124;28;20345;-48
2022/03/27 10:05:16;;;;;;;;;;;18.70;43.20;;;;;;4096421;29;20224;-52
2022/03/27 10:07:22;;;;;;;;;;;18.90;45.20;;;;;;4096434;28;19927;-51
2022/03/27 10:09:24;;;;;;;;;;;19.00;44.00;;;;;;4095539;29;20368;-51
2022/03/27 10:11:27;;;;;;;;;;;19.10;44.50;;;;;;4095839;28;19926;-51
2022/03/27 10:13:29;;;;;;;;;;;19.10;44.30;;;;;;4089973;29;19927;-50
2022/03/27 10:15:31;;;;;;;;;;;19.00;43.00;;;;;;4095045;29;20260;-51
2022/03/27 10:17:37;;;;;;;;;;;19.10;43.50;;;;;;4096552;28;20045;-51
2022/03/27 10:20:01;;;;;;;;;;;19.30;44.30;;;;;;4094325;29;19931;-49
2022/03/27 10:22:05;;;;;;;;;;;19.50;43.90;;;;;;4094354;29;20025;-50
2022/03/27 10:24:13;;;;;;;;;;;19.80;43.30;;;;;;4095456;29;19934;-51
2022/03/27 10:26:16;;;;;;;;;;;19.80;42.40;;;;;;4093957;29;19926;-51
2022/03/27 10:28:21;;;;;;;;;;;19.80;43.10;;;;;;4092528;29;20021;-51
2022/03/27 10:30:24;;;;;;;;;;;19.90;44.00;;;;;;4093528;29;19927;-51
2022/03/27 10:32:26;;;;;;;;;;;19.80;44.60;;;;;;4094718;29;19926;-51
2022/03/27 10:34:29;;;;;;;;;;;19.90;44.10;;;;;;4094349;29;19984;-51
2022/03/27 10:36:36;;;;;;;;;;;19.70;43.30;;;;;;4094665;29;19938;-50
2022/03/27 10:38:45;;;;;;;;;;;19.40;41.90;;;;;;4094399;29;20021;-51
2022/03/27 10:41:06;;;;;;;;;;;19.50;43.60;;;;;;4093056;29;19976;-51
2022/03/27 10:43:26;;;;;;;;;;;19.40;41.70;;;;;;4087661;28;19985;-51
2022/03/27 10:45:30;;;;;;;;;;;19.50;43.30;;;;;;4095497;29;20021;-51
2022/03/27 10:47:32;;;;;;;;;;;19.70;43.20;;;;;;4094970;29;19930;-48
2022/03/27 10:49:34;;;;;;;;;;;19.50;41.60;;;;;;4093572;29;20824;-50
2022/03/27 10:51:37;;;;;;;;;;;19.40;41.30;;;;;;4094542;29;19937;-52
2022/03/27 10:53:59;;;;;;;;;;;19.10;40.50;;;;;;4101984;28;19936;-50
2022/03/27 10:56:01;;;;;;;;;;;19.10;40.10;;;;;;4099758;28;19978;-50
2022/03/27 10:58:23;;;;;;;;;;;19.10;40.30;;;;;;4094603;29;20350;-51
2022/03/27 11:00:36;;;;;;;;;;;19.30;41.60;;;;;;4087569;29;20437;-50
2022/03/27 11:02:50;;;;;;;;;;;19.30;42.10;;;;;;4093129;29;19927;-51
2022/03/27 11:04:52;;;;;;;;;;;19.30;42.10;;;;;;4094121;29;19974;-49
2022/03/27 11:07:13;;;;;;;;;;;19.60;42.40;;;;;;4094672;29;19976;-50
2022/03/27 11:09:35;;;;;;;;;;;19.40;41.50;;;;;;4099127;28;19949;-51
2022/03/27 11:11:37;;;;;;;;;;;19.40;42.00;;;;;;4095247;29;19966;-52
2022/03/27 11:13:39;;;;;;;;;;;19.40;40.80;;;;;;4095309;28;19937;-52
2022/03/27 11:16:00;;;;;;;;;;;19.70;42.50;;;;;;4098338;29;19927;-51
2022/03/27 11:18:10;;;;;;;;;;;19.80;42.80;;;;;;4091569;28;20413;-51
2022/03/27 11:20:31;;;;;;;;;;;20.00;44.10;;;;;;4083171;29;20026;-51
2022/03/27 11:22:43;;;;;;;;;;;19.80;43.50;;;;;;4098177;29;20383;-52
2022/03/27 11:24:45;;;;;;;;;;;20.10;44.30;;;;;;4090723;29;19981;-52
2022/03/27 11:26:50;;;;;;;;;;;19.90;43.10;;;;;;4097645;29;20289;-52
2022/03/27 11:28:53;;;;;;;;;;;19.90;42.90;;;;;;4097607;29;19927;-51
2022/03/27 11:30:55;;;;;;;;;;;19.80;43.50;;;;;;4097165;29;20418;-52
2022/03/27 11:33:15;;;;;;;;;;;20.10;43.30;;;;;;4096154;29;20017;-51
2022/03/27 11:35:17;;;;;;;;;;;20.10;44.30;;;;;;4097626;29;19955;-52
2022/03/27 11:37:23;;;;;;;;;;;20.00;43.60;;;;;;4097379;29;19985;-51
2022/03/27 11:39:35;;;;;;;;;;;19.80;42.40;;;;;;4097353;29;19978;-52
2022/03/27 11:41:47;;;;;;;;;;;19.60;43.60;;;;;;4097390;29;20307;-51
2022/03/27 11:43:51;;;;;;;;;;;19.70;45.00;;;;;;4097782;28;19927;-51
2022/03/27 11:45:54;;;;;;;;;;;19.80;44.80;;;;;;4097346;29;19973;-52
2022/03/27 11:47:57;;;;;;;;;;;19.70;45.30;;;;;;4097565;29;20124;-51
2022/03/27 11:49:58;;;;;;;;;;;19.70;44.80;;;;;;4098920;28;19974;-51
2022/03/27 11:52:05;;;;;;;;;;;19.50;43.80;;;;;;4098198;28;19927;-51
2022/03/27 11:54:17;;;;;;;;;;;19.40;44.90;;;;;;4097009;29;20023;-51
2022/03/27 11:56:20;;;;;;;;;;;19.20;43.60;;;;;;4097352;29;19981;-52
2022/03/27 11:58:22;;;;;;;;;;;19.20;43.70;;;;;;4097203;29;20557;-51
2022/03/27 12:00:33;;;;;;;;;;;19.40;45.80;;;;;;4096556;29;19927;-51
2022/03/27 12:02:42;;;;;;;;;;;19.40;45.20;;;;;;4096782;29;19938;-51
2022/03/27 12:04:50;;;;;;;;;;;19.60;47.10;;;;;;4097035;29;19930;-50
2022/03/27 12:06:56;;;;;;;;;;;19.60;46.80;;;;;;4097378;29;19926;-50
2022/03/27 12:08:58;;;;;;;;;;;19.20;43.40;;;;;;4107755;28;19938;-52
2022/03/27 12:11:04;;;;;;;;;;;19.20;44.50;;;;;;4096677;29;19969;-52
2022/03/27 12:13:08;;;;;;;;;;;19.40;45.20;;;;;;4098284;29;19990;-50
2022/03/27 12:15:10;;;;;;;;;;;19.70;46.80;;;;;;4097073;29;20020;-48
2022/03/27 12:17:12;;;;;;;;;;;19.80;45.60;;;;;;4096953;28;20047;-52